Time;durP1;ratioP1;P1;durP2;ratioP2;P2;SDS_P1;SDS_P2;PMS_P1;PMS_P2;Temp;Humidity;BMP_temperature;BMP_pressure;BME280_temperature;BME280_humidity;BME280_pressure;Samples;Min_cycle;Max_cycle;Signal;HPM_P1;HPM_P2
2022/11/06 00:03:24;;;;;;;75.73;37.93;;;1.40;99.90;;;;;;9940138;29;20249;-80
2022/11/06 00:08:30;;;;;;;67.60;34.50;;;1.20;99.90;;;;;;9982350;29;20268;-79
2022/11/06 00:13:33;;;;;;;67.53;33.17;;;;;;;;;;9986512;29;20327;-79
2022/11/06 00:18:36;;;;;;;63.07;33.37;;;1.10;99.90;;;;;;9985317;29;20668;-80
2022/11/06 00:23:40;;;;;;;60.80;31.17;;;1.10;99.90;;;;;;9991822;29;20248;-80
2022/11/06 00:28:42;;;;;;;71.30;36.20;;;1.10;99.90;;;;;;10012430;29;20292;-80
2022/11/06 00:33:45;;;;;;;63.43;33.60;;;1.20;99.90;;;;;;10012749;29;20266;-80
2022/11/06 00:38:52;;;;;;;62.27;32.50;;;1.00;99.90;;;;;;9997350;29;20243;-80
2022/11/06 00:44:00;;;;;;;73.33;34.93;;;0.90;99.90;;;;;;10011650;29;20305;-80
2022/11/06 00:49:02;;;;;;;80.77;38.77;;;0.90;99.90;;;;;;9996522;29;20278;-80
2022/11/06 00:54:08;;;;;;;78.37;36.93;;;1.10;99.90;;;;;;10012554;29;20273;-80
2022/11/06 00:59:12;;;;;;;79.33;38.67;;;1.00;99.90;;;;;;9995868;29;20301;-79
2022/11/06 01:04:16;;;;;;;72.00;34.20;;;;;;;;;;10010307;29;20382;-80
2022/11/06 01:09:22;;;;;;;84.37;36.67;;;1.00;99.90;;;;;;10002130;29;20271;-79
2022/11/06 01:14:25;;;;;;;66.73;31.23;;;0.80;99.90;;;;;;10019888;29;20266;-79
2022/11/06 01:19:27;;;;;;;64.73;31.47;;;0.90;99.90;;;;;;10002713;29;20302;-80
2022/11/06 01:24:30;;;;;;;69.77;32.13;;;1.00;99.90;;;;;;9997838;29;20356;-80
2022/11/06 01:29:33;;;;;;;66.70;31.70;;;0.90;99.90;;;;;;9963902;29;20705;-79
2022/11/06 01:34:35;;;;;;;61.57;29.23;;;1.00;99.90;;;;;;9987139;29;20259;-79
2022/11/06 01:39:38;;;;;;;55.33;27.57;;;0.90;99.90;;;;;;10000114;29;20247;-80
2022/11/06 01:44:43;;;;;;;74.87;31.13;;;1.00;99.90;;;;;;10011380;29;20257;-80
2022/11/06 01:49:47;;;;;;;73.27;29.77;;;1.20;99.90;;;;;;10011235;29;20752;-80
2022/11/06 01:54:58;;;;;;;61.20;26.90;;;1.40;99.90;;;;;;10017959;29;20300;-80
2022/11/06 02:00:00;;;;;;;55.07;26.33;;;1.40;99.90;;;;;;10018064;29;20242;-80
2022/11/06 02:05:07;;;;;;;61.90;24.17;;;1.40;99.90;;;;;;10017598;29;20254;-80
2022/11/06 02:10:09;;;;;;;72.93;26.67;;;1.50;99.90;;;;;;10016425;29;20721;-80
2022/11/06 02:15:26;;;;;;;66.10;26.00;;;1.50;99.90;;;;;;9999930;29;20273;-80
2022/11/06 02:20:43;;;;;;;54.13;24.70;;;1.50;99.90;;;;;;10000013;29;20298;-80
2022/11/06 02:26:20;;;;;;;48.03;23.37;;;1.40;99.90;;;;;;10016242;29;20324;-80
2022/11/06 02:31:28;;;;;;;44.70;24.33;;;1.30;99.90;;;;;;10011146;29;20731;-80
2022/11/06 02:36:39;;;;;;;53.20;24.17;;;1.40;99.90;;;;;;10016400;29;20252;-80
2022/11/06 02:41:43;;;;;;;50.17;23.43;;;1.40;99.90;;;;;;10016114;29;20254;-80
2022/11/06 02:46:50;;;;;;;47.20;21.97;;;1.40;99.90;;;;;;10015885;29;20281;-80
2022/11/06 02:51:57;;;;;;;44.60;22.23;;;1.30;99.90;;;;;;10014771;29;20326;-80
2022/11/06 02:57:05;;;;;;;37.30;19.77;;;1.30;99.90;;;;;;9998203;29;20712;-80
2022/11/06 03:02:15;;;;;;;34.37;18.80;;;1.30;99.90;;;;;;10010301;29;20775;-80
2022/11/06 03:07:27;;;;;;;31.93;17.87;;;1.30;99.90;;;;;;9977736;29;20665;-80
2022/11/06 03:13:08;;;;;;;28.10;16.43;;;1.40;99.90;;;;;;9976627;29;20294;-80
2022/11/06 03:18:42;;;;;;;38.50;18.43;;;1.50;99.90;;;;;;9786816;30;21060;-80
2022/11/06 03:24:06;;;;;;;38.77;17.87;;;1.60;99.90;;;;;;9823156;30;20254;-80
2022/11/06 03:29:27;;;;;;;38.43;18.70;;;1.60;99.90;;;;;;9809011;30;20251;-81
2022/11/06 03:34:57;;;;;;;37.33;18.43;;;1.70;99.90;;;;;;9808056;30;20317;-81
2022/11/06 03:40:04;;;;;;;34.07;16.60;;;2.00;99.90;;;;;;9805007;30;20304;-81
2022/11/06 03:45:16;;;;;;;37.40;17.50;;;2.30;99.90;;;;;;9807320;30;20320;-80
2022/11/06 03:50:39;;;;;;;35.27;17.20;;;2.20;99.90;;;;;;9836580;29;20297;-80
2022/11/06 03:55:44;;;;;;;37.73;15.43;;;;;;;;;;9996713;29;20324;-80
2022/11/06 04:00:48;;;;;;;35.83;15.37;;;2.20;99.90;;;;;;10009856;29;20714;-80
2022/11/06 04:05:58;;;;;;;34.77;16.80;;;2.20;99.90;;;;;;9997504;29;20249;-80
2022/11/06 04:16:26;;;;;;;35.50;16.77;;;2.10;99.90;;;;;;10000638;29;20240;-80
2022/11/06 04:21:32;;;;;;;24.63;16.50;;;2.10;99.90;;;;;;9996171;29;20712;-80
2022/11/06 04:26:44;;;;;;;29.80;14.83;;;2.00;99.90;;;;;;10013942;29;20249;-81
2022/11/06 04:32:02;;;;;;;24.50;16.27;;;2.00;99.90;;;;;;10013502;29;20265;-80
2022/11/06 04:37:04;;;;;;;28.93;16.53;;;1.80;99.90;;;;;;10013168;29;20259;-80
2022/11/06 04:42:28;;;;;;;28.37;16.00;;;1.90;99.90;;;;;;10013683;29;20247;-80
2022/11/06 04:47:31;;;;;;;28.27;15.03;;;1.80;99.90;;;;;;10003956;29;20707;-80
2022/11/06 04:52:35;;;;;;;27.87;15.07;;;1.80;99.90;;;;;;10019826;29;20261;-81
2022/11/06 04:57:38;;;;;;;25.13;15.37;;;1.70;99.90;;;;;;10019202;29;20281;-80
2022/11/06 05:02:41;;;;;;;24.13;13.23;;;1.60;99.90;;;;;;10020434;29;20654;-81
2022/11/06 05:07:43;;;;;;;19.97;13.83;;;1.60;99.90;;;;;;10002684;29;20256;-81
2022/11/06 05:12:46;;;;;;;18.67;12.67;;;1.60;99.90;;;;;;10018389;29;20302;-81
2022/11/06 05:17:49;;;;;;;25.57;13.30;;;1.60;99.90;;;;;;10016753;29;20901;-81
2022/11/06 05:22:59;;;;;;;28.20;13.23;;;1.60;99.90;;;;;;10019296;29;20259;-81
2022/11/06 05:28:05;;;;;;;19.37;12.97;;;1.60;99.90;;;;;;10002224;29;20257;-81
2022/11/06 05:33:07;;;;;;;19.20;12.63;;;1.60;99.90;;;;;;10001603;29;20268;-81
2022/11/06 05:38:10;;;;;;;24.57;14.17;;;1.60;99.90;;;;;;10017996;29;20722;-81
2022/11/06 05:43:13;;;;;;;24.00;13.17;;;1.60;99.90;;;;;;10018909;29;20723;-81
2022/11/06 05:48:15;;;;;;;21.80;13.63;;;1.70;99.90;;;;;;10017987;29;20242;-80
2022/11/06 05:53:18;;;;;;;22.47;11.80;;;1.70;99.90;;;;;;10017946;29;20257;-81
2022/11/06 05:58:20;;;;;;;19.23;12.17;;;1.70;99.90;;;;;;10016504;29;20642;-81
2022/11/06 06:03:24;;;;;;;21.93;12.33;;;1.60;99.90;;;;;;10018002;29;20703;-81
2022/11/06 06:08:26;;;;;;;19.83;13.53;;;1.70;99.90;;;;;;10000813;29;20325;-81
2022/11/06 06:13:29;;;;;;;22.60;13.87;;;1.70;99.90;;;;;;10014321;29;20265;-81
2022/11/06 06:18:31;;;;;;;18.30;12.00;;;1.70;99.90;;;;;;9986177;29;20248;-81
2022/11/06 06:23:34;;;;;;;19.40;12.83;;;1.70;99.90;;;;;;10000100;29;20294;-81
2022/11/06 06:28:37;;;;;;;25.10;14.33;;;1.60;99.90;;;;;;10016673;29;20325;-81
2022/11/06 06:33:39;;;;;;;24.40;12.97;;;1.70;99.90;;;;;;9998224;29;20682;-81
2022/11/06 06:38:42;;;;;;;23.90;13.23;;;1.60;99.90;;;;;;9999200;29;20260;-81
2022/11/06 06:43:48;;;;;;;21.40;12.53;;;1.70;99.90;;;;;;10008448;29;20274;-81
2022/11/06 06:48:50;;;;;;;20.37;12.57;;;1.80;99.90;;;;;;10017027;29;20657;-81
2022/11/06 06:53:52;;;;;;;22.70;13.60;;;1.90;99.90;;;;;;9999706;29;20260;-81
2022/11/06 06:58:55;;;;;;;23.67;12.83;;;2.10;99.90;;;;;;10000236;29;20245;-81
2022/11/06 07:03:58;;;;;;;22.47;13.97;;;2.00;99.90;;;;;;9999640;29;20250;-81
2022/11/06 07:09:06;;;;;;;17.90;13.30;;;2.10;99.90;;;;;;10014547;29;20677;-81
2022/11/06 07:14:09;;;;;;;22.23;14.60;;;2.30;99.90;;;;;;10014341;29;20266;-81
2022/11/06 07:19:12;;;;;;;32.27;16.43;;;2.20;99.90;;;;;;9999486;29;20311;-81
2022/11/06 07:24:16;;;;;;;31.53;15.23;;;2.30;99.90;;;;;;9998798;29;20336;-81
2022/11/06 07:29:19;;;;;;;25.00;15.33;;;2.40;99.90;;;;;;10014115;29;20250;-81
2022/11/06 07:34:21;;;;;;;24.07;14.50;;;2.40;99.90;;;;;;10013216;29;20344;-81
2022/11/06 07:39:24;;;;;;;20.83;13.20;;;2.60;99.90;;;;;;10014191;29;20623;-81
2022/11/06 07:44:26;;;;;;;23.63;14.37;;;2.70;99.90;;;;;;9997969;29;20257;-80
2022/11/06 07:49:29;;;;;;;22.13;14.27;;;2.90;99.90;;;;;;10013402;29;20256;-81
2022/11/06 07:54:31;;;;;;;28.17;15.40;;;3.10;99.90;;;;;;9994856;29;20277;-81
2022/11/06 07:59:33;;;;;;;36.30;16.70;;;3.10;99.90;;;;;;9982523;29;20313;-81
2022/11/06 08:04:36;;;;;;;27.67;17.30;;;3.30;99.90;;;;;;9997998;29;20246;-81
2022/11/06 08:09:38;;;;;;;31.13;17.97;;;3.60;99.90;;;;;;10012025;29;20299;-82
2022/11/06 08:14:41;;;;;;;32.97;19.13;;;3.60;99.90;;;;;;9997041;29;20302;-81
2022/11/06 08:19:43;;;;;;;38.87;18.03;;;3.80;99.90;;;;;;10015595;29;20650;-81
2022/11/06 08:24:46;;;;;;;31.80;17.53;;;4.20;99.90;;;;;;10005107;29;20302;-80
2022/11/06 08:29:48;;;;;;;31.63;16.97;;;4.30;99.90;;;;;;10019759;29;20656;-81
2022/11/06 08:34:51;;;;;;;30.27;16.53;;;4.50;99.90;;;;;;10004543;29;20273;-82
2022/11/06 08:39:53;;;;;;;29.07;15.93;;;4.70;99.90;;;;;;10003757;29;20310;-81
2022/11/06 08:44:55;;;;;;;29.53;17.60;;;5.00;99.90;;;;;;10020892;29;20242;-80
2022/11/06 08:49:58;;;;;;;31.53;16.83;;;5.20;99.90;;;;;;10004919;29;20249;-80
2022/11/06 08:55:01;;;;;;;29.67;17.33;;;5.30;99.90;;;;;;10020330;29;20323;-81
2022/11/06 09:00:04;;;;;;;24.67;15.50;;;5.40;99.90;;;;;;10017006;29;20242;-80
2022/11/06 09:05:07;;;;;;;24.77;17.13;;;5.70;99.90;;;;;;9982649;29;20320;-81
2022/11/06 09:10:10;;;;;;;29.13;15.97;;;5.80;99.90;;;;;;9966532;29;20724;-81
2022/11/06 09:15:12;;;;;;;27.07;15.10;;;5.90;99.90;;;;;;10018732;29;20273;-82
2022/11/06 09:20:17;;;;;;;29.00;16.47;;;6.20;99.90;;;;;;10017825;29;20648;-81
2022/11/06 09:25:20;;;;;;;26.03;17.00;;;6.50;99.90;;;;;;9952107;29;20300;-80
2022/11/06 09:30:24;;;;;;;25.50;14.87;;;6.70;99.90;;;;;;10015694;29;20661;-80
2022/11/06 09:35:28;;;;;;;23.30;13.33;;;;;;;;;;9975504;29;20326;-80
2022/11/06 09:40:36;;;;;;;23.07;12.73;;;7.00;99.90;;;;;;9991561;29;20238;-80
2022/11/06 09:45:40;;;;;;;23.63;12.57;;;7.30;99.90;;;;;;9984861;29;20249;-79
2022/11/06 09:50:54;;;;;;;20.03;10.23;;;7.50;99.90;;;;;;10017850;29;20470;-79
2022/11/06 09:56:00;;;;;;;14.17;9.43;;;7.60;99.90;;;;;;9967490;29;20270;-79
2022/11/06 10:01:16;;;;;;;15.10;8.33;;;7.70;99.90;;;;;;9968982;29;20250;-82
2022/11/06 10:06:27;;;;;;;12.07;7.60;;;7.90;99.90;;;;;;9989873;29;20330;-82
2022/11/06 10:11:55;;;;;;;15.07;7.70;;;8.00;99.90;;;;;;9981233;29;20306;-82
2022/11/06 10:17:14;;;;;;;9.93;6.90;;;8.10;99.90;;;;;;10016543;29;20277;-81
2022/11/06 10:22:32;;;;;;;10.93;7.57;;;8.30;99.90;;;;;;10003003;29;21125;-79
2022/11/06 10:27:41;;;;;;;12.27;5.73;;;8.60;99.90;;;;;;10000245;29;20755;-80
2022/11/06 10:33:05;;;;;;;14.03;6.77;;;9.10;99.90;;;;;;9990928;29;20272;-81
2022/11/06 10:38:16;;;;;;;14.20;7.50;;;9.00;99.90;;;;;;9981318;29;20291;-80
2022/11/06 10:43:31;;;;;;;12.20;7.30;;;9.00;99.90;;;;;;10000619;29;20305;-81
2022/11/06 10:48:58;;;;;;;10.80;6.77;;;9.20;99.90;;;;;;10000182;29;20242;-81
2022/11/06 10:54:17;;;;;;;16.63;8.90;;;9.30;99.90;;;;;;9996888;29;20745;-81
2022/11/06 10:59:19;;;;;;;14.47;7.23;;;9.50;99.90;;;;;;9955768;29;20284;-80
2022/11/06 11:04:22;;;;;;;10.03;6.73;;;9.50;99.90;;;;;;10013350;29;20781;-81
2022/11/06 11:09:30;;;;;;;8.47;5.87;;;9.60;99.90;;;;;;9998284;29;20266;-80
2022/11/06 11:14:33;;;;;;;13.00;7.20;;;9.70;99.90;;;;;;9989805;29;20265;-80
2022/11/06 11:19:42;;;;;;;13.57;6.77;;;10.90;99.90;;;;;;9996044;29;20298;-80
2022/11/06 11:25:24;;;;;;;10.40;6.30;;;12.00;99.90;;;;;;9992241;29;20275;-80
2022/11/06 11:30:28;;;;;;;10.73;6.73;;;11.60;99.90;;;;;;9990473;29;20258;-80
2022/11/06 11:35:31;;;;;;;16.20;6.93;;;10.30;99.90;;;;;;10014167;29;20270;-80
2022/11/06 11:40:37;;;;;;;12.90;6.77;;;10.00;99.90;;;;;;10012614;29;20291;-80
2022/11/06 11:45:39;;;;;;;12.77;6.33;;;10.00;99.90;;;;;;10013907;29;20629;-80
2022/11/06 11:50:42;;;;;;;16.53;7.77;;;9.80;99.90;;;;;;9995769;29;21018;-80
2022/11/06 11:55:49;;;;;;;11.67;7.00;;;10.00;99.90;;;;;;9994276;29;20330;-80
2022/11/06 12:00:58;;;;;;;12.97;6.77;;;10.10;99.90;;;;;;9962654;29;20242;-80
2022/11/06 12:06:13;;;;;;;15.27;6.20;;;10.10;99.90;;;;;;9948379;29;20270;-84
2022/11/06 12:11:23;;;;;;;8.37;5.93;;;11.10;99.90;;;;;;9972031;29;20250;-81
2022/11/06 12:16:27;;;;;;;14.57;6.93;;;12.30;99.90;;;;;;9985645;29;20579;-79
2022/11/06 12:21:33;;;;;;;10.87;6.57;;;12.70;99.90;;;;;;9996668;29;20230;-81
2022/11/06 12:26:58;;;;;;;11.60;7.30;;;10.90;99.90;;;;;;10002933;29;20295;-80
2022/11/06 12:32:19;;;;;;;14.53;6.00;;;10.50;99.90;;;;;;9979010;29;20246;-80
2022/11/06 12:37:53;;;;;;;12.07;6.27;;;10.50;99.90;;;;;;10004386;29;20392;-80
2022/11/06 12:43:19;;;;;;;11.87;5.90;;;10.30;99.90;;;;;;9958726;29;20294;-80
2022/11/06 12:48:38;;;;;;;10.37;5.93;;;10.30;99.90;;;;;;9996741;29;20231;-79
2022/11/06 12:53:58;;;;;;;9.93;6.43;;;10.40;99.90;;;;;;9974430;29;20720;-79
2022/11/06 12:59:38;;;;;;;16.33;6.77;;;10.40;99.90;;;;;;9997195;29;20745;-81
2022/11/06 13:04:49;;;;;;;12.30;5.93;;;10.50;99.90;;;;;;9987624;29;20246;-80
2022/11/06 13:10:07;;;;;;;11.47;6.30;;;10.40;99.90;;;;;;9995368;29;20274;-80
2022/11/06 13:15:30;;;;;;;15.10;6.80;;;10.30;99.90;;;;;;10013983;29;20261;-80
2022/11/06 13:20:55;;;;;;;10.47;6.00;;;10.40;99.90;;;;;;9999466;29;20299;-79
2022/11/06 13:26:41;;;;;;;9.90;5.70;;;10.30;99.90;;;;;;9996186;29;20250;-80
2022/11/06 13:31:49;;;;;;;7.47;5.33;;;10.40;99.90;;;;;;10011252;29;20246;-80
2022/11/06 13:36:53;;;;;;;13.67;5.10;;;10.30;99.90;;;;;;9985198;29;20293;-79
2022/11/06 13:41:56;;;;;;;7.37;5.13;;;10.40;99.90;;;;;;9978869;29;20234;-80
2022/11/06 13:47:16;;;;;;;8.13;5.47;;;10.20;99.90;;;;;;10000149;29;20266;-79
2022/11/06 13:52:27;;;;;;;9.27;5.47;;;10.20;99.90;;;;;;9996280;29;20683;-79
2022/11/06 13:58:01;;;;;;;8.43;5.37;;;10.00;99.90;;;;;;10003496;29;20270;-80
2022/11/06 14:03:25;;;;;;;8.70;5.70;;;10.00;99.90;;;;;;9990624;29;20250;-80
2022/11/06 14:08:47;;;;;;;13.47;6.47;;;9.90;99.90;;;;;;9978332;29;20350;-80
2022/11/06 14:14:18;;;;;;;9.00;6.80;;;9.70;99.90;;;;;;9974784;29;20325;-80
2022/11/06 14:19:28;;;;;;;15.33;5.80;;;9.60;99.90;;;;;;9660420;29;9999891;-79
2022/11/06 14:24:33;;;;;;;11.47;6.30;;;9.70;99.90;;;;;;9977969;29;20275;-80
2022/11/06 14:29:35;;;;;;;12.77;7.00;;;9.50;99.90;;;;;;9977790;29;20260;-80
2022/11/06 14:34:40;;;;;;;13.60;8.03;;;9.10;99.90;;;;;;9978678;29;20320;-80
2022/11/06 14:39:51;;;;;;;15.03;7.20;;;9.00;99.90;;;;;;10001688;29;20267;-80
2022/11/06 14:45:20;;;;;;;17.03;7.50;;;8.80;99.90;;;;;;9994694;29;20299;-80
2022/11/06 14:50:27;;;;;;;12.23;7.00;;;8.60;99.90;;;;;;9972795;29;20260;-80
2022/11/06 14:55:45;;;;;;;11.50;6.90;;;8.50;99.90;;;;;;9993885;29;20368;-79
2022/11/06 15:00:59;;;;;;;14.70;7.90;;;8.30;99.90;;;;;;9984994;29;20766;-79
2022/11/06 15:06:28;;;;;;;14.50;7.67;;;8.00;99.90;;;;;;10005104;29;20295;-80
2022/11/06 15:11:48;;;;;;;15.57;7.60;;;7.60;99.90;;;;;;9985102;29;20299;-81
2022/11/06 15:16:59;;;;;;;17.10;8.83;;;7.50;99.90;;;;;;9997435;29;20265;-82
2022/11/06 15:22:20;;;;;;;18.00;10.47;;;7.40;99.90;;;;;;9976532;29;20306;-82
2022/11/06 15:27:29;;;;;;;19.97;10.37;;;7.20;99.90;;;;;;9975881;29;20311;-81
2022/11/06 15:32:37;;;;;;;15.50;10.13;;;7.00;99.90;;;;;;9977743;29;20313;-81
2022/11/06 15:37:44;;;;;;;22.17;10.47;;;6.90;99.90;;;;;;10004593;29;20801;-81
2022/11/06 15:42:47;;;;;;;36.53;20.57;;;6.70;99.90;;;;;;9975778;29;20701;-81
2022/11/06 15:47:58;;;;;;;24.10;12.50;;;6.50;99.90;;;;;;9998728;29;20274;-81
2022/11/06 15:53:28;;;;;;;20.20;12.87;;;6.50;99.90;;;;;;9994253;29;20249;-81
2022/11/06 15:58:36;;;;;;;21.70;12.53;;;6.40;99.90;;;;;;9990135;29;20262;-81
2022/11/06 16:03:48;;;;;;;22.17;14.73;;;6.30;99.90;;;;;;9977671;29;20238;-82
2022/11/06 16:08:51;;;;;;;25.87;16.27;;;6.30;99.90;;;;;;10000878;29;20266;-82
2022/11/06 16:13:55;;;;;;;27.83;16.50;;;6.10;99.90;;;;;;9975755;29;20301;-82
2022/11/06 16:18:58;;;;;;;27.00;17.17;;;6.10;99.90;;;;;;9994392;29;20362;-82
2022/11/06 16:24:11;;;;;;;31.33;18.97;;;6.10;99.90;;;;;;9992099;29;20242;-81
2022/11/06 16:29:28;;;;;;;30.00;16.43;;;5.90;99.90;;;;;;9976083;29;20637;-79
2022/11/06 16:34:36;;;;;;;26.17;15.03;;;5.70;99.90;;;;;;9997798;29;20258;-79
2022/11/06 16:39:51;;;;;;;25.87;15.60;;;5.40;99.90;;;;;;9983084;29;20246;-79
2022/11/06 16:45:19;;;;;;;28.50;15.83;;;5.20;99.90;;;;;;10002001;29;20250;-80
2022/11/06 16:50:45;;;;;;;42.30;24.53;;;5.00;99.90;;;;;;10003478;29;20295;-79
2022/11/06 16:56:05;;;;;;;67.83;35.13;;;5.00;99.90;;;;;;10017767;29;20292;-80
2022/11/06 17:01:09;;;;;;;122.77;54.30;;;4.90;99.90;;;;;;10013354;29;20246;-80
2022/11/06 17:06:25;;;;;;;139.20;56.70;;;4.80;99.90;;;;;;9992795;29;20257;-79
2022/11/06 17:11:27;;;;;;;87.03;37.53;;;4.90;99.90;;;;;;10006895;29;20246;-79
2022/11/06 17:16:43;;;;;;;71.13;29.13;;;4.80;99.90;;;;;;9962482;29;20271;-79
2022/11/06 17:21:46;;;;;;;68.73;27.20;;;4.90;99.90;;;;;;10003852;29;20242;-80
2022/11/06 17:26:51;;;;;;;44.00;19.90;;;5.00;99.90;;;;;;10004695;29;20258;-80
2022/11/06 17:31:55;;;;;;;33.53;18.50;;;5.20;99.90;;;;;;10003665;29;20242;-80
2022/11/06 17:36:58;;;;;;;35.60;18.30;;;5.10;99.90;;;;;;9984560;29;20258;-80
2022/11/06 17:42:00;;;;;;;28.77;18.23;;;5.10;99.90;;;;;;10004406;29;20242;-79
2022/11/06 17:47:03;;;;;;;55.87;33.77;;;5.00;99.90;;;;;;10001742;29;20310;-80
2022/11/06 17:52:05;;;;;;;41.87;22.23;;;5.00;99.90;;;;;;10001955;29;20264;-80
2022/11/06 17:57:08;;;;;;;43.67;24.80;;;4.90;99.90;;;;;;10000892;29;20328;-80
2022/11/06 18:02:13;;;;;;;43.27;25.77;;;4.80;99.90;;;;;;9986070;29;20708;-79
2022/11/06 18:07:17;;;;;;;55.90;28.20;;;4.60;99.90;;;;;;9988446;29;20258;-79
2022/11/06 18:12:22;;;;;;;51.90;29.83;;;4.70;99.90;;;;;;10007604;29;20247;-79
2022/11/06 18:17:25;;;;;;;52.17;30.23;;;;;;;;;;10000626;29;20470;-79
2022/11/06 18:22:28;;;;;;;58.37;33.93;;;;;;;;;;10003841;29;20248;-79
2022/11/06 18:27:30;;;;;;;67.43;35.70;;;4.50;99.90;;;;;;9985421;29;20316;-79
2022/11/06 18:32:33;;;;;;;69.17;35.73;;;4.40;99.90;;;;;;9981983;29;20307;-79
2022/11/06 18:37:35;;;;;;;64.97;33.37;;;4.40;99.90;;;;;;10011941;29;20265;-79
2022/11/06 18:42:38;;;;;;;76.00;38.40;;;4.20;99.90;;;;;;10006756;29;20781;-79
2022/11/06 18:47:40;;;;;;;69.23;35.80;;;4.20;99.90;;;;;;10000908;29;20241;-79
2022/11/06 18:52:43;;;;;;;75.90;38.97;;;4.20;99.90;;;;;;10015495;29;20305;-79
2022/11/06 18:57:59;;;;;;;87.03;44.67;;;4.20;99.90;;;;;;10008930;29;20327;-79
2022/11/06 19:03:02;;;;;;;120.50;54.07;;;4.10;99.90;;;;;;10004808;29;20772;-79
2022/11/06 19:08:04;;;;;;;137.00;55.70;;;4.00;99.90;;;;;;10017077;29;20246;-79
2022/11/06 19:13:07;;;;;;;103.53;49.07;;;4.00;99.90;;;;;;10004020;29;20267;-83
2022/11/06 19:18:11;;;;;;;98.80;49.20;;;3.80;99.90;;;;;;10018452;29;20338;-80
2022/11/06 19:23:14;;;;;;;71.90;41.53;;;3.90;99.90;;;;;;9996133;29;20285;-80
2022/11/06 19:28:17;;;;;;;81.87;39.20;;;3.70;99.90;;;;;;10002626;29;20281;-81
2022/11/06 19:33:19;;;;;;;85.30;39.73;;;3.70;99.90;;;;;;10002964;29;20214;-81
2022/11/06 19:38:22;;;;;;;72.93;35.30;;;3.80;99.90;;;;;;9983898;29;20592;-82
2022/11/06 19:43:28;;;;;;;63.90;32.50;;;3.80;99.90;;;;;;10005364;29;20657;-81
2022/11/06 19:48:31;;;;;;;61.20;31.33;;;3.90;99.90;;;;;;9990570;29;20242;-81
2022/11/06 19:53:34;;;;;;;82.33;37.97;;;4.00;99.90;;;;;;9972450;29;20744;-81
2022/11/06 19:58:36;;;;;;;83.50;38.03;;;4.00;99.90;;;;;;9992339;29;20672;-80
2022/11/06 20:03:39;;;;;;;79.30;35.70;;;4.00;99.90;;;;;;10002625;29;20250;-80
2022/11/06 20:08:42;;;;;;;51.63;26.53;;;4.00;99.90;;;;;;9991677;29;20276;-82
2022/11/06 20:13:45;;;;;;;53.63;27.53;;;3.90;99.90;;;;;;9973591;29;20704;-82
2022/11/06 20:18:52;;;;;;;57.50;28.97;;;;;;;;;;9982327;29;20254;-81
2022/11/06 20:23:56;;;;;;;51.17;26.43;;;4.00;99.90;;;;;;9993959;29;20246;-82
2022/11/06 20:28:58;;;;;;;52.77;27.10;;;3.90;99.90;;;;;;9973600;29;20242;-83
2022/11/06 20:34:01;;;;;;;53.87;24.27;;;3.90;99.90;;;;;;9977748;29;20254;-83
2022/11/06 20:39:04;;;;;;;112.83;50.67;;;4.70;99.90;;;;;;9976173;29;20661;-80
2022/11/06 20:44:06;;;;;;;108.50;50.80;;;4.00;99.90;;;;;;9991997;29;20242;-80
2022/11/06 20:49:08;;;;;;;65.43;32.93;;;3.60;99.90;;;;;;9970468;29;20709;-80
2022/11/06 20:54:11;;;;;;;65.83;33.10;;;3.60;99.90;;;;;;9987063;29;20266;-80
2022/11/06 20:59:14;;;;;;;50.10;25.87;;;3.40;99.90;;;;;;9971638;29;20323;-82
2022/11/06 21:04:17;;;;;;;47.67;26.23;;;4.10;99.90;;;;;;9996826;29;20637;-84
2022/11/06 21:09:21;;;;;;;54.67;25.33;;;3.50;99.90;;;;;;9995923;29;20326;-80
2022/11/06 21:14:24;;;;;;;77.03;32.77;;;3.20;99.90;;;;;;9997705;29;21002;-80
2022/11/06 21:19:28;;;;;;;81.97;35.53;;;3.20;99.90;;;;;;9977596;29;20743;-80
2022/11/06 21:24:30;;;;;;;56.37;28.37;;;3.10;99.90;;;;;;9977354;29;20242;-79
2022/11/06 21:29:33;;;;;;;59.17;30.27;;;3.20;99.90;;;;;;9982234;29;20253;-80
2022/11/06 21:34:35;;;;;;;59.73;28.73;;;2.80;99.90;;;;;;9973520;29;20299;-80
2022/11/06 21:39:38;;;;;;;59.80;28.87;;;2.70;99.90;;;;;;9985821;29;20734;-80
2022/11/06 21:44:41;;;;;;;66.67;33.70;;;2.30;99.90;;;;;;9985547;29;20222;-80
2022/11/06 21:49:52;;;;;;;65.27;32.57;;;2.20;99.90;;;;;;9985079;29;20575;-80
2022/11/06 22:00:16;;;;;;;63.43;27.90;;;2.10;99.90;;;;;;9998991;29;20820;-81
2022/11/06 22:05:19;;;;;;;55.50;27.07;;;1.80;99.90;;;;;;9989567;29;20756;-81
2022/11/06 22:10:21;;;;;;;44.53;25.33;;;1.80;99.90;;;;;;9984000;29;20321;-81
2022/11/06 22:15:24;;;;;;;40.90;19.33;;;1.80;99.90;;;;;;9993088;29;20269;-81
2022/11/06 22:20:26;;;;;;;40.97;19.60;;;5.60;99.90;;;;;;10014589;29;20247;-80
2022/11/06 22:25:29;;;;;;;36.03;19.63;;;3.70;99.90;;;;;;9999549;29;20707;-79
2022/11/06 22:30:31;;;;;;;38.20;19.57;;;2.40;99.90;;;;;;9993060;29;20207;-80
2022/11/06 22:35:34;;;;;;;48.83;21.10;;;2.40;99.90;;;;;;10000636;29;20245;-80
2022/11/06 22:40:36;;;;;;;39.43;20.80;;;2.20;99.90;;;;;;9992891;29;20240;-79
2022/11/06 22:45:39;;;;;;;41.00;19.87;;;2.20;99.90;;;;;;10002454;29;20245;-79
2022/11/06 22:50:41;;;;;;;36.73;21.23;;;2.20;99.90;;;;;;10003741;29;20240;-79
2022/11/06 22:55:44;;;;;;;42.37;20.13;;;2.30;99.90;;;;;;9998963;29;20615;-80
2022/11/06 23:00:51;;;;;;;42.17;21.00;;;2.20;99.90;;;;;;9996087;29;20242;-79
2022/11/06 23:05:56;;;;;;;47.97;21.00;;;2.20;99.90;;;;;;10013163;29;20637;-80
2022/11/06 23:11:06;;;;;;;41.77;22.20;;;2.20;99.90;;;;;;9999541;29;20622;-81
2022/11/06 23:16:15;;;;;;;47.30;21.10;;;2.30;99.90;;;;;;10015734;29;20309;-80
2022/11/06 23:21:18;;;;;;;45.70;21.57;;;2.40;99.90;;;;;;9998965;29;20241;-80
2022/11/06 23:26:21;;;;;;;39.93;21.00;;;2.50;99.90;;;;;;10015847;29;20271;-82
2022/11/06 23:31:23;;;;;;;40.23;21.60;;;2.60;99.90;;;;;;9999396;29;20606;-81
2022/11/06 23:36:26;;;;;;;39.60;20.10;;;2.50;99.90;;;;;;10016531;29;20260;-80
2022/11/06 23:41:47;;;;;;;43.43;18.93;;;2.40;99.90;;;;;;10013989;29;20253;-82
2022/11/06 23:46:50;;;;;;;38.17;19.47;;;2.40;99.90;;;;;;9998751;29;20248;-81
2022/11/06 23:51:53;;;;;;;37.17;20.67;;;2.30;99.90;;;;;;10014053;29;20316;-81
2022/11/06 23:56:55;;;;;;;39.53;20.90;;;2.40;99.90;;;;;;10012868;29;20328;-81
